createdAt,value
2023-01-10T00:00:37.513Z,6.85
2023-01-10T00:03:07.706Z,8.60
2023-01-10T00:05:38.662Z,14.25
2023-01-10T00:08:06.946Z,12.43
2023-01-10T00:10:34.435Z,8.23
2023-01-10T00:13:19.632Z,12.07
2023-01-10T00:15:47.089Z,12.25
2023-01-10T00:18:13.676Z,9.50
2023-01-10T00:20:40.199Z,8.55
2023-01-10T00:23:06.834Z,6.28
2023-01-10T00:25:34.261Z,11.35
2023-01-10T00:28:29.909Z,6.75
2023-01-10T00:31:01.115Z,8.35
2023-01-10T00:33:28.807Z,12.05
2023-01-10T00:35:55.397Z,10.82
2023-01-10T00:38:21.893Z,12.65
2023-01-10T00:40:48.525Z,7.15
2023-01-10T00:43:33.865Z,7.70
2023-01-10T00:46:02.653Z,14.40
2023-01-10T00:48:29.881Z,8.82
2023-01-10T00:50:56.703Z,8.40
2023-01-10T00:53:23.204Z,4.43
2023-01-10T00:55:49.816Z,16.23
2023-01-10T00:58:17.237Z,8.13
2023-01-10T01:00:49.744Z,10.73
2023-01-10T01:03:18.598Z,8.25
2023-01-10T01:05:46.949Z,8.10
2023-01-10T01:08:15.770Z,8.57
2023-01-10T01:10:42.218Z,7.22
2023-01-10T01:13:14.750Z,11.90
2023-01-10T01:15:41.367Z,7.78
2023-01-10T01:18:08.637Z,7.53
2023-01-10T01:20:35.095Z,10.63
2023-01-10T01:23:01.585Z,13.50
2023-01-10T01:25:28.019Z,10.52
2023-01-10T01:27:54.470Z,10.77
2023-01-10T01:30:21.161Z,10.48
2023-01-10T01:32:47.645Z,16.55
2023-01-10T01:35:15.672Z,4.88
2023-01-10T01:37:43.261Z,12.10
2023-01-10T01:40:18.217Z,13.63
2023-01-10T01:42:45.908Z,10.85
2023-01-10T01:45:15.179Z,9.27
2023-01-10T01:47:51.011Z,7.93
2023-01-10T01:50:22.711Z,5.57
2023-01-10T01:52:53.494Z,8.35
2023-01-10T01:55:20.084Z,10.90
2023-01-10T01:57:48.398Z,10.60
2023-01-10T02:00:15.320Z,11.10
2023-01-10T02:03:01.821Z,10.98
2023-01-10T02:05:34.475Z,6.93
2023-01-10T02:08:04.874Z,11.20
2023-01-10T02:11:09.309Z,10.95
2023-01-10T02:13:41.305Z,11.68
2023-01-10T02:16:08.741Z,8.93
2023-01-10T02:18:37.083Z,12.25
2023-01-10T02:21:17.267Z,9.55
2023-01-10T02:24:02.558Z,10.18
2023-01-10T02:26:58.904Z,12.52
2023-01-10T02:29:51.491Z,7.95
2023-01-10T02:32:41.980Z,8.77
2023-01-10T02:35:31.262Z,7.93
2023-01-10T02:38:48.338Z,9.98
2023-01-10T02:41:52.012Z,8.85
2023-01-10T02:44:29.777Z,9.43
2023-01-10T02:46:56.673Z,6.38
2023-01-10T02:49:23.122Z,13.57
2023-01-10T02:51:49.741Z,9.75
2023-01-10T02:54:24.575Z,15.88
2023-01-10T02:57:09.678Z,7.60
2023-01-10T03:00:04.178Z,6.43
2023-01-10T03:02:37.811Z,12.98
2023-01-10T03:05:24.512Z,14.05
2023-01-10T03:08:12.707Z,13.43
2023-01-10T03:10:39.125Z,9.57
2023-01-10T03:13:11.441Z,13.15
2023-01-10T03:15:40.184Z,11.10
2023-01-10T03:18:30.721Z,17.38
2023-01-10T03:20:58.652Z,14.82
2023-01-10T03:23:26.609Z,16.23
2023-01-10T03:25:55.723Z,11.18
2023-01-10T03:28:31.969Z,11.73
2023-01-10T03:31:06.324Z,7.30
2023-01-10T03:33:34.566Z,11.23
2023-01-10T03:36:23.105Z,9.00
2023-01-10T03:38:56.014Z,10.43
2023-01-10T03:41:31.477Z,8.55
2023-01-10T03:44:19.823Z,8.80
2023-01-10T03:46:54.616Z,14.55
2023-01-10T03:49:24.912Z,14.18
2023-01-10T03:51:53.492Z,11.10
2023-01-10T03:54:20.139Z,12.85
2023-01-10T03:56:51.720Z,9.48
2023-01-10T03:59:22.194Z,13.48
2023-01-10T04:01:48.684Z,8.52
2023-01-10T04:04:15.390Z,14.02
2023-01-10T04:06:42.209Z,16.20
2023-01-10T04:09:09.292Z,10.23
2023-01-10T04:11:35.978Z,12.88
2023-01-10T04:14:02.609Z,15.57
2023-01-10T04:16:29.247Z,13.77
2023-01-10T04:18:55.845Z,14.20
2023-01-10T04:21:22.390Z,14.98
2023-01-10T04:23:48.819Z,11.73
2023-01-10T04:26:15.341Z,14.77
2023-01-10T04:28:41.762Z,16.27
2023-01-10T04:31:08.235Z,13.85
2023-01-10T04:33:34.751Z,7.82
2023-01-10T04:36:01.236Z,14.15
2023-01-10T04:38:27.716Z,10.20
2023-01-10T04:40:56.227Z,18.45
2023-01-10T04:43:24.381Z,14.13
2023-01-10T04:45:51.160Z,10.02
2023-01-10T04:48:17.685Z,13.35
2023-01-10T04:50:50.542Z,16.58
2023-01-10T04:53:17.034Z,14.20
2023-01-10T04:55:43.766Z,8.13
2023-01-10T04:58:10.202Z,6.45
2023-01-10T05:00:37.593Z,12.98
2023-01-10T05:03:04.442Z,6.65
2023-01-10T05:05:31.935Z,6.50
2023-01-10T05:07:58.652Z,16.83
2023-01-10T05:10:25.439Z,12.70
2023-01-10T05:12:51.868Z,10.93
2023-01-10T05:15:18.392Z,10.80
2023-01-10T05:17:44.929Z,13.20
2023-01-10T05:20:13.399Z,11.32
2023-01-10T05:22:39.902Z,11.77
2023-01-10T05:25:06.910Z,14.27
2023-01-10T05:27:33.441Z,14.43
2023-01-10T05:30:00.060Z,6.40
2023-01-10T05:32:29.657Z,14.95
2023-01-10T05:34:57.043Z,12.95
2023-01-10T05:37:23.474Z,12.40
2023-01-10T05:39:49.887Z,16.95
2023-01-10T05:42:18.681Z,11.52
2023-01-10T05:44:45.196Z,15.32
2023-01-10T05:47:11.710Z,13.60
2023-01-10T05:49:38.126Z,12.95
2023-01-10T05:52:04.787Z,14.18
2023-01-10T05:54:31.346Z,24.55
2023-01-10T05:56:57.825Z,20.48
2023-01-10T05:59:28.346Z,13.32
2023-01-10T06:01:55.401Z,19.38
2023-01-10T06:04:22.056Z,21.08
2023-01-10T06:06:48.606Z,14.05
2023-01-10T06:09:15.042Z,15.10
2023-01-10T06:11:41.664Z,15.65
2023-01-10T06:14:08.243Z,17.60
2023-01-10T06:16:34.925Z,16.45
2023-01-10T06:19:01.454Z,17.90
2023-01-10T06:21:27.914Z,14.35
2023-01-10T06:23:54.739Z,12.70
2023-01-10T06:26:21.349Z,13.63
2023-01-10T06:28:47.876Z,15.57
2023-01-10T06:31:15.008Z,16.55
2023-01-10T06:33:43.905Z,19.05
2023-01-10T06:36:10.962Z,14.63
2023-01-10T06:38:37.745Z,13.38
2023-01-10T06:41:12.999Z,12.65
2023-01-10T06:43:41.303Z,15.07
2023-01-10T06:46:09.846Z,16.95
2023-01-10T06:48:37.528Z,11.43
2023-01-10T06:51:07.169Z,17.50
2023-01-10T06:53:33.705Z,12.82
2023-01-10T06:56:01.613Z,21.40
2023-01-10T06:58:28.632Z,15.27
2023-01-10T07:00:55.178Z,12.02
2023-01-10T07:03:21.807Z,15.40
2023-01-10T07:05:48.416Z,27.67
2023-01-10T07:08:15.037Z,19.80
2023-01-10T07:10:42.327Z,15.13
2023-01-10T07:13:08.800Z,13.82
2023-01-10T07:15:35.878Z,15.05
2023-01-10T07:18:02.767Z,19.33
2023-01-10T07:20:29.301Z,14.02
2023-01-10T07:23:00.320Z,22.30
2023-01-10T07:25:28.480Z,26.55
2023-01-10T07:27:58.179Z,17.27
2023-01-10T07:30:25.988Z,25.08
2023-01-10T07:32:54.738Z,12.43
2023-01-10T07:35:22.011Z,21.75
2023-01-10T07:37:48.648Z,18.42
2023-01-10T07:40:15.221Z,19.73
2023-01-10T07:42:41.633Z,19.27
2023-01-10T07:45:08.721Z,14.85
2023-01-10T07:47:35.517Z,13.80
2023-01-10T07:50:02.095Z,24.08
2023-01-10T07:52:28.512Z,16.77
2023-01-10T07:54:55.062Z,17.58
2023-01-10T07:57:21.533Z,18.33
2023-01-10T07:59:47.959Z,13.57
2023-01-10T08:02:14.595Z,25.17
2023-01-10T08:04:41.078Z,18.83
2023-01-10T08:07:07.503Z,12.75
2023-01-10T08:09:34.000Z,16.45
2023-01-10T08:12:00.480Z,18.75
2023-01-10T08:14:27.040Z,19.30
2023-01-10T08:16:53.538Z,12.77
2023-01-10T08:19:20.005Z,15.88
2023-01-10T08:21:47.045Z,27.58
2023-01-10T08:24:13.605Z,24.88
2023-01-10T08:26:40.514Z,16.45
2023-01-10T08:29:07.037Z,18.83
2023-01-10T08:31:33.519Z,19.25
2023-01-10T08:34:00.315Z,18.25
2023-01-10T08:36:28.840Z,17.90
2023-01-10T08:38:55.900Z,17.10
2023-01-10T08:41:22.584Z,12.55
2023-01-10T08:43:50.586Z,21.23
2023-01-10T08:46:17.690Z,24.08
2023-01-10T08:48:44.502Z,17.55
2023-01-10T08:51:11.729Z,22.65
2023-01-10T08:53:41.403Z,26.75
2023-01-10T08:56:09.026Z,12.68
2023-01-10T08:58:35.811Z,25.67
2023-01-10T09:01:06.714Z,21.83
2023-01-10T09:03:33.515Z,17.95
2023-01-10T09:06:01.415Z,17.02
2023-01-10T09:08:28.268Z,22.00
2023-01-10T09:10:54.895Z,19.30
2023-01-10T09:13:21.381Z,16.45
2023-01-10T09:15:47.881Z,17.77
2023-01-10T09:18:14.586Z,24.27
2023-01-10T09:20:42.601Z,17.45
2023-01-10T09:23:18.929Z,15.38
2023-01-10T09:25:51.401Z,11.88
2023-01-10T09:28:18.189Z,20.63
2023-01-10T09:30:45.342Z,18.20
2023-01-10T09:33:12.415Z,15.00
2023-01-10T09:35:40.505Z,14.27
2023-01-10T09:38:10.509Z,20.98
2023-01-10T09:41:21.214Z,19.73
2023-01-10T09:44:06.401Z,23.30
2023-01-10T09:47:05.997Z,10.32
2023-01-10T09:49:52.274Z,22.13
2023-01-10T09:52:26.058Z,17.33
2023-01-10T09:54:56.758Z,22.92
2023-01-10T09:57:24.000Z,26.75
2023-01-10T09:59:53.854Z,25.10
2023-01-10T10:02:31.832Z,19.00
2023-01-10T10:05:22.422Z,14.50
2023-01-10T10:07:54.738Z,15.88
2023-01-10T10:10:31.998Z,18.52
2023-01-10T10:13:16.988Z,18.35
2023-01-10T10:16:10.996Z,13.13
2023-01-10T10:19:00.861Z,11.88
2023-01-10T10:21:58.699Z,19.25
2023-01-10T10:24:49.840Z,18.10
2023-01-10T10:27:23.620Z,19.60
2023-01-10T10:30:01.865Z,22.10
2023-01-10T10:32:35.917Z,14.77
2023-01-10T10:35:13.360Z,13.98
2023-01-10T10:37:45.861Z,12.57
2023-01-10T10:40:15.659Z,13.35
2023-01-10T10:42:48.724Z,23.33
2023-01-10T10:45:41.738Z,21.05
2023-01-10T10:48:31.235Z,13.38
2023-01-10T10:51:27.635Z,17.35
2023-01-10T10:53:57.834Z,12.52
2023-01-10T10:56:26.542Z,15.57
2023-01-10T10:58:56.482Z,20.80
2023-01-10T11:01:26.253Z,16.80
2023-01-10T11:04:01.057Z,19.15
2023-01-10T11:06:31.340Z,18.10
2023-01-10T11:09:03.631Z,13.90
2023-01-10T11:11:37.599Z,21.33
2023-01-10T11:14:06.791Z,9.25
2023-01-10T11:16:43.635Z,15.55
2023-01-10T11:19:14.844Z,16.95
2023-01-10T11:21:45.502Z,12.88
2023-01-10T11:24:34.357Z,17.30
2023-01-10T11:27:04.993Z,13.15
2023-01-10T11:29:47.143Z,13.00
2023-01-10T11:32:17.462Z,19.35
2023-01-10T11:34:59.535Z,16.80
2023-01-10T11:37:32.499Z,11.57
2023-01-10T11:40:25.781Z,16.05
2023-01-10T11:42:59.288Z,12.80
2023-01-10T11:45:36.924Z,17.23
2023-01-10T11:48:19.231Z,17.83
2023-01-10T11:50:50.467Z,18.05
2023-01-10T11:53:38.088Z,19.33
2023-01-10T11:56:06.747Z,15.93
2023-01-10T11:58:36.663Z,21.35
2023-01-10T12:01:03.315Z,13.63
2023-01-10T12:03:34.973Z,18.60
2023-01-10T12:06:09.429Z,14.95
2023-01-10T12:08:38.350Z,18.73
2023-01-10T12:11:07.741Z,10.82
2023-01-10T12:13:52.161Z,13.30
2023-01-10T12:16:38.329Z,14.85
2023-01-10T12:19:11.966Z,11.60
2023-01-10T12:21:41.871Z,14.02
2023-01-10T12:24:16.148Z,11.55
2023-01-10T12:26:43.834Z,9.52
2023-01-10T12:29:20.244Z,18.25
2023-01-10T12:31:46.712Z,9.20
2023-01-10T12:34:24.370Z,22.42
2023-01-10T12:37:14.801Z,13.82
2023-01-10T12:39:46.919Z,16.25
2023-01-10T12:42:59.942Z,7.65
2023-01-10T12:45:33.343Z,7.65
2023-01-10T12:48:05.685Z,13.98
2023-01-10T12:50:38.626Z,17.35
2023-01-10T12:53:07.916Z,21.75
2023-01-10T12:55:40.630Z,16.38
2023-01-10T12:58:19.792Z,11.20
2023-01-10T13:00:52.534Z,16.92
2023-01-10T13:03:28.755Z,17.17
2023-01-10T13:05:57.591Z,11.63
2023-01-10T13:08:27.828Z,9.05
2023-01-10T13:10:58.281Z,12.43
2023-01-10T13:13:42.479Z,17.45
2023-01-10T13:16:15.233Z,13.73
2023-01-10T13:19:10.546Z,11.98
2023-01-10T13:21:40.202Z,15.00
2023-01-10T13:24:20.613Z,11.60
2023-01-10T13:26:52.282Z,15.27
2023-01-10T13:29:22.731Z,17.50
2023-01-10T13:31:56.965Z,12.52
2023-01-10T13:34:27.738Z,13.63
2023-01-10T13:37:13.139Z,17.13
2023-01-10T13:39:48.990Z,18.80
2023-01-10T13:43:01.229Z,16.55
2023-01-10T13:45:29.660Z,14.77
2023-01-10T13:47:56.897Z,15.05
2023-01-10T13:50:28.440Z,14.02
2023-01-10T13:53:17.633Z,12.20
2023-01-10T13:55:46.408Z,8.35
2023-01-10T13:58:16.019Z,11.73
2023-01-10T14:01:04.989Z,11.50
2023-01-10T14:03:42.650Z,12.73
2023-01-10T14:06:21.257Z,11.43
2023-01-10T14:09:04.287Z,15.68
2023-01-10T14:11:54.171Z,15.43
2023-01-10T14:14:33.450Z,11.43
2023-01-10T14:17:19.154Z,17.25
2023-01-10T14:19:48.133Z,9.55
2023-01-10T14:22:30.907Z,19.52
2023-01-10T14:24:59.960Z,11.20
2023-01-10T14:27:34.258Z,15.63
2023-01-10T14:30:02.401Z,16.23
2023-01-10T14:32:35.034Z,19.77
2023-01-10T14:35:05.576Z,13.82
2023-01-10T14:37:39.735Z,11.20
2023-01-10T14:40:29.200Z,17.05
2023-01-10T14:43:00.013Z,15.70
2023-01-10T14:45:34.922Z,11.10
2023-01-10T14:48:22.006Z,38.22
2023-01-10T14:50:48.517Z,13.30
2023-01-10T14:53:30.695Z,14.88
2023-01-10T14:55:58.537Z,14.35
2023-01-10T14:58:25.094Z,18.25
2023-01-10T15:00:54.870Z,9.18
2023-01-10T15:03:24.587Z,10.63
2023-01-10T15:05:54.948Z,11.65
2023-01-10T15:08:25.333Z,14.20
2023-01-10T15:10:54.741Z,16.88
2023-01-10T15:13:26.406Z,18.30
2023-01-10T15:15:53.530Z,15.00
2023-01-10T15:18:43.267Z,12.30
2023-01-10T15:21:13.402Z,9.10
2023-01-10T15:23:42.632Z,11.57
2023-01-10T15:26:16.121Z,7.68
2023-01-10T15:28:49.452Z,12.05
2023-01-10T15:31:19.725Z,12.43
2023-01-10T15:33:56.338Z,10.55
2023-01-10T15:36:26.698Z,13.15
2023-01-10T15:38:54.141Z,8.43
2023-01-10T15:41:23.006Z,15.55
2023-01-10T15:43:51.811Z,15.80
2023-01-10T15:46:24.031Z,5.57
2023-01-10T15:49:21.778Z,10.48
2023-01-10T15:51:48.473Z,11.82
2023-01-10T15:54:21.627Z,5.20
2023-01-10T15:56:51.431Z,7.95
2023-01-10T15:59:27.206Z,11.77
2023-01-10T16:02:25.037Z,10.25
2023-01-10T16:05:06.071Z,17.80
2023-01-10T16:07:42.399Z,10.43
2023-01-10T16:10:16.513Z,5.10
2023-01-10T16:13:02.534Z,14.18
2023-01-10T16:15:31.300Z,4.65
2023-01-10T16:17:58.000Z,2.78
2023-01-10T16:20:31.908Z,6.70
2023-01-10T16:22:59.812Z,8.73
2023-01-10T16:25:35.251Z,2.72
2023-01-10T16:28:02.368Z,3.83
2023-01-10T16:30:31.497Z,7.72
2023-01-10T16:33:00.762Z,3.83
2023-01-10T16:35:27.355Z,2.03
2023-01-10T16:37:56.285Z,2.45
2023-01-10T16:40:27.517Z,4.03
2023-01-10T16:43:13.963Z,5.15
2023-01-10T16:45:40.872Z,4.18
2023-01-10T16:48:07.762Z,3.15
2023-01-10T16:50:34.285Z,4.05
2023-01-10T16:53:01.063Z,8.82
2023-01-10T16:55:48.211Z,5.88
2023-01-10T16:58:15.739Z,4.93
2023-01-10T17:00:44.746Z,7.05
2023-01-10T17:03:18.473Z,3.08
2023-01-10T17:05:44.984Z,4.53
2023-01-10T17:08:17.618Z,4.03
2023-01-10T17:10:47.210Z,2.75
2023-01-10T17:13:17.388Z,3.85
2023-01-10T17:15:43.861Z,3.50
2023-01-10T17:18:10.837Z,6.80
2023-01-10T17:20:37.303Z,3.33
2023-01-10T17:23:03.917Z,5.82
2023-01-10T17:25:30.371Z,3.03
2023-01-10T17:27:57.009Z,2.50
2023-01-10T17:30:23.397Z,1.88
2023-01-10T17:32:49.856Z,2.55
2023-01-10T17:35:16.374Z,3.35
2023-01-10T17:37:43.109Z,1.60
2023-01-10T17:40:10.280Z,4.88
2023-01-10T17:42:36.789Z,2.42
2023-01-10T17:45:03.747Z,2.63
2023-01-10T17:47:30.186Z,5.18
2023-01-10T17:49:56.816Z,1.42
2023-01-10T17:52:23.913Z,6.00
2023-01-10T17:54:50.409Z,1.85
2023-01-10T17:57:17.045Z,2.05
2023-01-10T17:59:43.516Z,3.13
2023-01-10T18:02:18.366Z,2.58
2023-01-10T18:04:45.234Z,8.18
2023-01-10T18:07:13.100Z,2.80
2023-01-10T18:09:39.761Z,3.28
2023-01-10T18:12:07.114Z,3.20
2023-01-10T18:14:38.659Z,6.40
2023-01-10T18:17:08.557Z,4.55
2023-01-10T18:19:35.773Z,4.15
2023-01-10T18:22:26.515Z,3.10
2023-01-10T18:24:54.552Z,3.15
2023-01-10T18:27:22.743Z,3.10
2023-01-10T18:29:55.246Z,4.75
2023-01-10T18:32:23.576Z,4.93
2023-01-10T18:34:50.559Z,3.33
2023-01-10T18:37:18.324Z,3.05
2023-01-10T18:39:45.224Z,4.10
2023-01-10T18:42:11.791Z,4.00
2023-01-10T18:44:38.900Z,5.05
2023-01-10T18:47:06.069Z,6.97
2023-01-10T18:49:32.780Z,7.40
2023-01-10T18:51:59.381Z,4.43
2023-01-10T18:54:27.948Z,3.78
2023-01-10T18:56:55.983Z,5.13
2023-01-10T18:59:23.104Z,5.70
2023-01-10T19:01:49.778Z,10.38
2023-01-10T19:04:17.438Z,5.25
2023-01-10T19:06:44.272Z,7.43
2023-01-10T19:09:10.892Z,6.53
2023-01-10T19:11:37.313Z,5.40
2023-01-10T19:14:04.094Z,7.63
2023-01-10T19:16:33.634Z,5.30
2023-01-10T19:19:03.155Z,6.28
2023-01-10T19:21:31.538Z,4.75
2023-01-10T19:24:03.356Z,5.50
2023-01-10T19:28:56.636Z,5.43
2023-01-10T19:31:26.165Z,6.07
2023-01-10T19:33:53.227Z,6.03
2023-01-10T19:36:21.915Z,6.57
2023-01-10T19:38:48.753Z,10.38
2023-01-10T19:41:15.932Z,4.53
2023-01-10T19:43:42.498Z,9.18
2023-01-10T19:46:10.968Z,4.65
2023-01-10T19:48:38.851Z,4.13
2023-01-10T19:51:10.027Z,8.57
2023-01-10T19:53:39.137Z,7.35
2023-01-10T19:56:10.042Z,6.63
2023-01-10T19:58:38.243Z,6.13
2023-01-10T20:01:07.841Z,5.68
2023-01-10T20:03:34.340Z,3.78
2023-01-10T20:06:05.644Z,3.97
2023-01-10T20:08:32.128Z,3.75
2023-01-10T20:11:06.122Z,4.47
2023-01-10T20:13:35.420Z,5.35
2023-01-10T20:16:01.967Z,4.55
2023-01-10T20:18:28.467Z,4.95
2023-01-10T20:20:55.292Z,4.97
2023-01-10T20:23:23.353Z,4.25
2023-01-10T20:25:57.857Z,10.02
2023-01-10T20:28:26.035Z,4.97
2023-01-10T20:30:53.383Z,6.32
2023-01-10T20:33:21.876Z,4.97
2023-01-10T20:36:08.977Z,6.63
2023-01-10T20:38:39.658Z,4.15
2023-01-10T20:41:10.240Z,5.95
2023-01-10T20:43:37.152Z,4.43
2023-01-10T20:46:10.759Z,6.70
2023-01-10T20:48:38.296Z,4.50
2023-01-10T20:51:06.066Z,4.50
2023-01-10T20:53:33.175Z,4.20
2023-01-10T20:56:05.240Z,4.03
2023-01-10T20:58:33.044Z,5.53
2023-01-10T21:01:02.654Z,5.70
2023-01-10T21:03:29.599Z,4.63
2023-01-10T21:05:58.463Z,4.80
2023-01-10T21:08:25.905Z,4.32
2023-01-10T21:10:52.960Z,5.55
2023-01-10T21:13:19.544Z,3.80
2023-01-10T21:15:47.194Z,4.22
2023-01-10T21:18:15.601Z,4.43
2023-01-10T21:20:43.853Z,4.70
2023-01-10T21:23:11.335Z,6.70
2023-01-10T21:25:40.919Z,5.35
2023-01-10T21:28:09.761Z,5.70
2023-01-10T21:30:37.744Z,8.05
2023-01-10T21:33:05.434Z,3.50
2023-01-10T21:35:32.593Z,4.13
2023-01-10T21:37:59.553Z,4.00
2023-01-10T21:40:27.137Z,4.32
2023-01-10T21:42:53.962Z,4.07
2023-01-10T21:45:22.080Z,3.88
2023-01-10T21:47:49.402Z,3.97
2023-01-10T21:50:17.368Z,6.13
2023-01-10T21:52:44.232Z,2.70
2023-01-10T21:55:14.153Z,3.55
2023-01-10T21:57:40.731Z,4.00
2023-01-10T22:00:08.592Z,3.85
2023-01-10T22:02:40.794Z,3.22
2023-01-10T22:05:07.966Z,3.15
2023-01-10T22:07:34.437Z,3.92
2023-01-10T22:10:00.967Z,5.70
2023-01-10T22:12:28.007Z,3.50
2023-01-10T22:14:54.500Z,3.60
2023-01-10T22:17:21.001Z,3.45
2023-01-10T22:19:47.487Z,3.50
2023-01-10T22:22:14.377Z,3.70
2023-01-10T22:24:44.735Z,3.53
2023-01-10T22:27:11.182Z,3.80
2023-01-10T22:29:37.742Z,4.97
2023-01-10T22:32:04.578Z,3.60
2023-01-10T22:34:31.056Z,3.90
2023-01-10T22:36:57.782Z,4.00
2023-01-10T22:39:24.402Z,4.45
2023-01-10T22:41:53.312Z,4.70
2023-01-10T22:44:21.921Z,5.07
2023-01-10T22:46:51.390Z,5.28
2023-01-10T22:49:17.955Z,5.43
2023-01-10T22:51:44.444Z,4.30
2023-01-10T22:54:18.001Z,4.57
2023-01-10T22:56:46.182Z,4.28
2023-01-10T22:59:25.364Z,5.10
2023-01-10T23:01:51.805Z,4.80
2023-01-10T23:04:20.249Z,5.13
2023-01-10T23:06:46.954Z,5.50
2023-01-10T23:09:13.419Z,5.15
2023-01-10T23:11:39.851Z,6.60
2023-01-10T23:14:06.252Z,5.30
2023-01-10T23:16:32.950Z,7.97
2023-01-10T23:19:00.200Z,4.80
2023-01-10T23:21:29.199Z,5.00
2023-01-10T23:23:56.348Z,5.28
2023-01-10T23:26:23.046Z,5.30
2023-01-10T23:28:51.063Z,5.60
2023-01-10T23:31:20.564Z,4.70
2023-01-10T23:33:47.768Z,5.00
2023-01-10T23:36:14.782Z,4.60
2023-01-10T23:38:41.456Z,4.82
2023-01-10T23:41:08.172Z,5.78
2023-01-10T23:43:34.866Z,5.88
2023-01-10T23:46:02.302Z,10.68
2023-01-10T23:48:29.378Z,6.80
2023-01-10T23:50:56.238Z,5.03
2023-01-10T23:53:22.881Z,5.03
2023-01-10T23:55:49.603Z,5.72
2023-01-10T23:58:16.877Z,8.25
